sensor_id;sensor_type;location;lat;lon;timestamp;temperature;humidity
13898;DHT22;7019;50.766;4.474;2023-04-30T00:00:59;6.50;99.90
13898;DHT22;7019;50.766;4.474;2023-04-30T00:03:27;6.50;99.90
13898;DHT22;7019;50.766;4.474;2023-04-30T00:05:54;6.50;99.90
13898;DHT22;7019;50.766;4.474;2023-04-30T00:08:21;6.50;99.90
13898;DHT22;7019;50.766;4.474;2023-04-30T00:10:48;6.60;99.90
13898;DHT22;7019;50.766;4.474;2023-04-30T00:13:16;6.60;99.90
13898;DHT22;7019;50.766;4.474;2023-04-30T00:15:43;6.60;99.90
13898;DHT22;7019;50.766;4.474;2023-04-30T00:18:10;6.60;99.90
13898;DHT22;7019;50.766;4.474;2023-04-30T00:20:39;6.60;99.90
13898;DHT22;7019;50.766;4.474;2023-04-30T00:23:06;6.60;99.90
13898;DHT22;7019;50.766;4.474;2023-04-30T00:25:33;6.50;99.90
13898;DHT22;7019;50.766;4.474;2023-04-30T00:28:00;6.50;99.90
13898;DHT22;7019;50.766;4.474;2023-04-30T00:30:27;6.40;99.90
13898;DHT22;7019;50.766;4.474;2023-04-30T00:32:54;6.30;99.90
13898;DHT22;7019;50.766;4.474;2023-04-30T00:35:21;6.30;99.90
13898;DHT22;7019;50.766;4.474;2023-04-30T00:37:50;6.30;99.90
13898;DHT22;7019;50.766;4.474;2023-04-30T00:40:17;6.20;99.90
13898;DHT22;7019;50.766;4.474;2023-04-30T00:42:44;6.20;99.90
13898;DHT22;7019;50.766;4.474;2023-04-30T00:45:11;6.30;99.90
13898;DHT22;7019;50.766;4.474;2023-04-30T00:47:39;6.20;99.90
13898;DHT22;7019;50.766;4.474;2023-04-30T00:50:07;6.20;99.90
13898;DHT22;7019;50.766;4.474;2023-04-30T00:52:34;6.10;99.90
13898;DHT22;7019;50.766;4.474;2023-04-30T00:55:03;6.10;99.90
13898;DHT22;7019;50.766;4.474;2023-04-30T00:57:30;6.10;99.90
13898;DHT22;7019;50.766;4.474;2023-04-30T00:59:58;6.10;99.90
13898;DHT22;7019;50.766;4.474;2023-04-30T01:02:25;6.00;99.90
13898;DHT22;7019;50.766;4.474;2023-04-30T01:04:52;6.00;99.90
13898;DHT22;7019;50.766;4.474;2023-04-30T01:07:20;6.00;99.90
13898;DHT22;7019;50.766;4.474;2023-04-30T01:09:48;6.00;99.90
13898;DHT22;7019;50.766;4.474;2023-04-30T01:12:20;6.00;99.90
13898;DHT22;7019;50.766;4.474;2023-04-30T01:15:01;6.00;99.90
13898;DHT22;7019;50.766;4.474;2023-04-30T01:17:33;5.90;99.90
13898;DHT22;7019;50.766;4.474;2023-04-30T01:20:05;5.90;99.90
13898;DHT22;7019;50.766;4.474;2023-04-30T01:22:38;5.80;99.90
13898;DHT22;7019;50.766;4.474;2023-04-30T01:25:28;5.80;99.90
13898;DHT22;7019;50.766;4.474;2023-04-30T01:28:08;5.80;99.90
13898;DHT22;7019;50.766;4.474;2023-04-30T01:30:36;5.70;99.90
13898;DHT22;7019;50.766;4.474;2023-04-30T01:33:05;5.80;99.90
13898;DHT22;7019;50.766;4.474;2023-04-30T01:35:55;5.70;99.90
13898;DHT22;7019;50.766;4.474;2023-04-30T01:38:36;5.70;99.90
13898;DHT22;7019;50.766;4.474;2023-04-30T01:41:14;5.70;99.90
13898;DHT22;7019;50.766;4.474;2023-04-30T01:43:55;5.70;99.90
13898;DHT22;7019;50.766;4.474;2023-04-30T01:46:28;5.70;99.90
13898;DHT22;7019;50.766;4.474;2023-04-30T01:49:04;5.70;99.90
13898;DHT22;7019;50.766;4.474;2023-04-30T01:51:39;5.60;99.90
13898;DHT22;7019;50.766;4.474;2023-04-30T01:54:16;5.60;99.90
13898;DHT22;7019;50.766;4.474;2023-04-30T01:56:48;5.60;99.90
13898;DHT22;7019;50.766;4.474;2023-04-30T01:59:19;5.60;99.90
13898;DHT22;7019;50.766;4.474;2023-04-30T02:01:47;5.60;99.90
13898;DHT22;7019;50.766;4.474;2023-04-30T02:04:14;5.60;99.90
13898;DHT22;7019;50.766;4.474;2023-04-30T02:06:41;5.60;99.90
13898;DHT22;7019;50.766;4.474;2023-04-30T02:09:08;5.60;99.90
13898;DHT22;7019;50.766;4.474;2023-04-30T02:11:35;5.60;99.90
13898;DHT22;7019;50.766;4.474;2023-04-30T02:14:02;5.60;99.90
13898;DHT22;7019;50.766;4.474;2023-04-30T02:16:31;5.50;99.90
13898;DHT22;7019;50.766;4.474;2023-04-30T02:18:58;5.40;99.90
13898;DHT22;7019;50.766;4.474;2023-04-30T02:21:25;5.40;99.90
13898;DHT22;7019;50.766;4.474;2023-04-30T02:23:52;5.40;99.90
13898;DHT22;7019;50.766;4.474;2023-04-30T02:26:20;5.40;99.90
13898;DHT22;7019;50.766;4.474;2023-04-30T02:28:47;5.30;99.90
13898;DHT22;7019;50.766;4.474;2023-04-30T02:31:14;5.30;99.90
13898;DHT22;7019;50.766;4.474;2023-04-30T02:33:42;5.30;99.90
13898;DHT22;7019;50.766;4.474;2023-04-30T02:36:09;5.30;99.90
13898;DHT22;7019;50.766;4.474;2023-04-30T02:38:36;5.30;99.90
13898;DHT22;7019;50.766;4.474;2023-04-30T02:41:03;5.30;99.90
13898;DHT22;7019;50.766;4.474;2023-04-30T02:43:30;5.30;99.90
13898;DHT22;7019;50.766;4.474;2023-04-30T02:45:57;5.30;99.90
13898;DHT22;7019;50.766;4.474;2023-04-30T02:48:24;5.30;99.90
13898;DHT22;7019;50.766;4.474;2023-04-30T02:50:53;5.30;99.90
13898;DHT22;7019;50.766;4.474;2023-04-30T02:53:20;5.30;99.90
13898;DHT22;7019;50.766;4.474;2023-04-30T02:55:47;5.30;99.90
13898;DHT22;7019;50.766;4.474;2023-04-30T02:58:14;5.20;99.90
13898;DHT22;7019;50.766;4.474;2023-04-30T03:00:41;5.20;99.90
13898;DHT22;7019;50.766;4.474;2023-04-30T03:03:08;5.10;99.90
13898;DHT22;7019;50.766;4.474;2023-04-30T03:05:35;5.10;99.90
13898;DHT22;7019;50.766;4.474;2023-04-30T03:08:04;5.10;99.90
13898;DHT22;7019;50.766;4.474;2023-04-30T03:10:31;5.10;99.90
13898;DHT22;7019;50.766;4.474;2023-04-30T03:12:58;5.10;99.90
13898;DHT22;7019;50.766;4.474;2023-04-30T03:15:25;5.00;99.90
13898;DHT22;7019;50.766;4.474;2023-04-30T03:17:52;5.00;99.90
13898;DHT22;7019;50.766;4.474;2023-04-30T03:20:19;5.10;99.90
13898;DHT22;7019;50.766;4.474;2023-04-30T03:22:46;5.10;99.90
13898;DHT22;7019;50.766;4.474;2023-04-30T03:25:14;5.00;99.90
13898;DHT22;7019;50.766;4.474;2023-04-30T03:27:41;5.00;99.90
13898;DHT22;7019;50.766;4.474;2023-04-30T03:30:09;5.00;99.90
13898;DHT22;7019;50.766;4.474;2023-04-30T03:32:36;4.90;99.90
13898;DHT22;7019;50.766;4.474;2023-04-30T03:35:04;4.90;99.90
13898;DHT22;7019;50.766;4.474;2023-04-30T03:37:31;4.90;99.90
13898;DHT22;7019;50.766;4.474;2023-04-30T03:39:58;4.90;99.90
13898;DHT22;7019;50.766;4.474;2023-04-30T03:42:26;4.90;99.90
13898;DHT22;7019;50.766;4.474;2023-04-30T03:44:53;4.90;99.90
13898;DHT22;7019;50.766;4.474;2023-04-30T03:47:20;4.90;99.90
13898;DHT22;7019;50.766;4.474;2023-04-30T03:49:47;4.80;99.90
13898;DHT22;7019;50.766;4.474;2023-04-30T03:52:19;4.80;99.90
13898;DHT22;7019;50.766;4.474;2023-04-30T03:54:46;4.80;99.90
13898;DHT22;7019;50.766;4.474;2023-04-30T03:57:13;4.80;99.90
13898;DHT22;7019;50.766;4.474;2023-04-30T03:59:42;4.80;99.90
13898;DHT22;7019;50.766;4.474;2023-04-30T04:02:09;4.70;99.90
13898;DHT22;7019;50.766;4.474;2023-04-30T04:04:36;4.70;99.90
13898;DHT22;7019;50.766;4.474;2023-04-30T04:07:03;4.70;99.90
13898;DHT22;7019;50.766;4.474;2023-04-30T04:09:32;4.70;99.90
13898;DHT22;7019;50.766;4.474;2023-04-30T04:11:59;4.70;99.90
13898;DHT22;7019;50.766;4.474;2023-04-30T04:14:27;4.70;99.90
13898;DHT22;7019;50.766;4.474;2023-04-30T04:16:55;4.70;99.90
13898;DHT22;7019;50.766;4.474;2023-04-30T04:19:24;4.70;99.90
13898;DHT22;7019;50.766;4.474;2023-04-30T04:21:51;4.70;99.90
13898;DHT22;7019;50.766;4.474;2023-04-30T04:24:18;4.70;99.90
13898;DHT22;7019;50.766;4.474;2023-04-30T04:26:45;4.70;99.90
13898;DHT22;7019;50.766;4.474;2023-04-30T04:29:12;4.70;99.90
13898;DHT22;7019;50.766;4.474;2023-04-30T04:31:39;4.70;99.90
13898;DHT22;7019;50.766;4.474;2023-04-30T04:34:08;4.70;99.90
13898;DHT22;7019;50.766;4.474;2023-04-30T04:36:36;4.70;99.90
13898;DHT22;7019;50.766;4.474;2023-04-30T04:39:03;4.80;99.90
13898;DHT22;7019;50.766;4.474;2023-04-30T04:41:34;4.80;99.90
13898;DHT22;7019;50.766;4.474;2023-04-30T04:44:02;4.80;99.90
13898;DHT22;7019;50.766;4.474;2023-04-30T04:46:29;4.80;99.90
13898;DHT22;7019;50.766;4.474;2023-04-30T04:48:57;4.90;99.90
13898;DHT22;7019;50.766;4.474;2023-04-30T04:51:26;4.90;99.90
13898;DHT22;7019;50.766;4.474;2023-04-30T04:53:53;4.90;99.90
13898;DHT22;7019;50.766;4.474;2023-04-30T04:56:20;5.00;99.90
13898;DHT22;7019;50.766;4.474;2023-04-30T04:58:47;5.00;99.90
13898;DHT22;7019;50.766;4.474;2023-04-30T05:01:14;5.10;99.90
13898;DHT22;7019;50.766;4.474;2023-04-30T05:03:42;5.10;99.90
13898;DHT22;7019;50.766;4.474;2023-04-30T05:06:09;5.10;99.90
13898;DHT22;7019;50.766;4.474;2023-04-30T05:08:37;5.20;99.90
13898;DHT22;7019;50.766;4.474;2023-04-30T05:11:04;5.20;99.90
13898;DHT22;7019;50.766;4.474;2023-04-30T05:13:31;5.30;99.90
13898;DHT22;7019;50.766;4.474;2023-04-30T05:15:59;5.40;99.90
13898;DHT22;7019;50.766;4.474;2023-04-30T05:18:26;5.50;99.90
13898;DHT22;7019;50.766;4.474;2023-04-30T05:20:53;5.50;99.90
13898;DHT22;7019;50.766;4.474;2023-04-30T05:23:20;5.70;99.90
13898;DHT22;7019;50.766;4.474;2023-04-30T05:25:52;5.70;99.90
13898;DHT22;7019;50.766;4.474;2023-04-30T05:28:19;5.80;99.90
13898;DHT22;7019;50.766;4.474;2023-04-30T05:30:46;5.80;99.90
13898;DHT22;7019;50.766;4.474;2023-04-30T05:33:13;5.90;99.90
13898;DHT22;7019;50.766;4.474;2023-04-30T05:35:41;5.90;99.90
13898;DHT22;7019;50.766;4.474;2023-04-30T05:38:08;5.90;99.90
13898;DHT22;7019;50.766;4.474;2023-04-30T05:40:35;6.00;99.90
13898;DHT22;7019;50.766;4.474;2023-04-30T05:43:03;6.00;99.90
13898;DHT22;7019;50.766;4.474;2023-04-30T05:45:30;6.00;99.90
13898;DHT22;7019;50.766;4.474;2023-04-30T05:47:57;6.20;99.90
13898;DHT22;7019;50.766;4.474;2023-04-30T05:50:26;6.30;99.90
13898;DHT22;7019;50.766;4.474;2023-04-30T05:52:53;6.40;99.90
13898;DHT22;7019;50.766;4.474;2023-04-30T05:55:20;6.50;99.90
13898;DHT22;7019;50.766;4.474;2023-04-30T05:57:47;6.60;99.90
13898;DHT22;7019;50.766;4.474;2023-04-30T06:00:16;6.70;99.90
13898;DHT22;7019;50.766;4.474;2023-04-30T06:02:44;6.80;99.90
13898;DHT22;7019;50.766;4.474;2023-04-30T06:05:11;7.40;99.90
13898;DHT22;7019;50.766;4.474;2023-04-30T06:07:38;8.30;99.90
13898;DHT22;7019;50.766;4.474;2023-04-30T06:10:06;9.20;99.90
13898;DHT22;7019;50.766;4.474;2023-04-30T06:12:34;10.10;99.90
13898;DHT22;7019;50.766;4.474;2023-04-30T06:15:01;11.00;99.90
13898;DHT22;7019;50.766;4.474;2023-04-30T06:17:29;11.50;99.90
13898;DHT22;7019;50.766;4.474;2023-04-30T06:19:56;12.30;99.90
13898;DHT22;7019;50.766;4.474;2023-04-30T06:22:27;12.70;99.90
13898;DHT22;7019;50.766;4.474;2023-04-30T06:24:54;13.00;99.90
13898;DHT22;7019;50.766;4.474;2023-04-30T06:27:22;13.30;99.90
13898;DHT22;7019;50.766;4.474;2023-04-30T06:29:49;13.40;99.90
13898;DHT22;7019;50.766;4.474;2023-04-30T06:32:16;13.80;99.90
13898;DHT22;7019;50.766;4.474;2023-04-30T06:34:44;14.10;99.90
13898;DHT22;7019;50.766;4.474;2023-04-30T06:37:11;14.10;99.90
13898;DHT22;7019;50.766;4.474;2023-04-30T06:39:38;14.40;99.90
13898;DHT22;7019;50.766;4.474;2023-04-30T06:42:05;14.70;99.90
13898;DHT22;7019;50.766;4.474;2023-04-30T06:44:33;14.70;99.90
13898;DHT22;7019;50.766;4.474;2023-04-30T06:47:00;14.90;99.90
13898;DHT22;7019;50.766;4.474;2023-04-30T06:49:27;15.00;99.90
13898;DHT22;7019;50.766;4.474;2023-04-30T06:51:55;15.10;99.90
13898;DHT22;7019;50.766;4.474;2023-04-30T06:54:23;15.20;99.90
13898;DHT22;7019;50.766;4.474;2023-04-30T06:56:51;15.00;99.90
13898;DHT22;7019;50.766;4.474;2023-04-30T06:59:18;15.10;99.90
13898;DHT22;7019;50.766;4.474;2023-04-30T07:01:45;15.30;99.90
13898;DHT22;7019;50.766;4.474;2023-04-30T07:04:12;15.00;99.90
13898;DHT22;7019;50.766;4.474;2023-04-30T07:06:39;14.90;99.90
13898;DHT22;7019;50.766;4.474;2023-04-30T07:09:08;15.30;99.90
13898;DHT22;7019;50.766;4.474;2023-04-30T07:11:35;15.40;99.90
13898;DHT22;7019;50.766;4.474;2023-04-30T07:14:03;15.80;99.90
13898;DHT22;7019;50.766;4.474;2023-04-30T07:16:31;16.00;99.90
13898;DHT22;7019;50.766;4.474;2023-04-30T07:18:58;15.60;99.90
13898;DHT22;7019;50.766;4.474;2023-04-30T07:21:25;16.10;99.90
13898;DHT22;7019;50.766;4.474;2023-04-30T07:23:52;16.50;99.90
13898;DHT22;7019;50.766;4.474;2023-04-30T07:26:21;16.80;99.90
13898;DHT22;7019;50.766;4.474;2023-04-30T07:28:49;16.80;99.90
13898;DHT22;7019;50.766;4.474;2023-04-30T07:31:16;16.90;99.90
13898;DHT22;7019;50.766;4.474;2023-04-30T07:33:44;17.00;99.90
13898;DHT22;7019;50.766;4.474;2023-04-30T07:36:11;16.80;99.90
13898;DHT22;7019;50.766;4.474;2023-04-30T07:38:38;17.30;99.90
13898;DHT22;7019;50.766;4.474;2023-04-30T07:41:05;17.60;99.90
13898;DHT22;7019;50.766;4.474;2023-04-30T07:43:34;18.00;99.90
13898;DHT22;7019;50.766;4.474;2023-04-30T07:46:01;18.00;99.90
13898;DHT22;7019;50.766;4.474;2023-04-30T07:48:29;17.60;99.90
13898;DHT22;7019;50.766;4.474;2023-04-30T07:50:56;17.60;99.90
13898;DHT22;7019;50.766;4.474;2023-04-30T07:53:23;17.80;99.90
13898;DHT22;7019;50.766;4.474;2023-04-30T07:55:50;18.30;99.90
13898;DHT22;7019;50.766;4.474;2023-04-30T07:58:17;18.30;99.90
13898;DHT22;7019;50.766;4.474;2023-04-30T08:00:46;18.60;99.90
13898;DHT22;7019;50.766;4.474;2023-04-30T08:03:13;19.00;99.90
13898;DHT22;7019;50.766;4.474;2023-04-30T08:05:40;19.20;99.90
13898;DHT22;7019;50.766;4.474;2023-04-30T08:08:07;19.20;99.90
13898;DHT22;7019;50.766;4.474;2023-04-30T08:10:34;19.10;99.90
13898;DHT22;7019;50.766;4.474;2023-04-30T08:13:03;19.20;99.90
13898;DHT22;7019;50.766;4.474;2023-04-30T08:15:32;19.30;99.90
13898;DHT22;7019;50.766;4.474;2023-04-30T08:18:01;19.20;99.90
13898;DHT22;7019;50.766;4.474;2023-04-30T08:20:31;19.30;99.90
13898;DHT22;7019;50.766;4.474;2023-04-30T08:22:58;19.50;99.90
13898;DHT22;7019;50.766;4.474;2023-04-30T08:25:25;19.70;99.90
13898;DHT22;7019;50.766;4.474;2023-04-30T08:27:53;19.70;99.90
13898;DHT22;7019;50.766;4.474;2023-04-30T08:30:20;19.90;99.90
13898;DHT22;7019;50.766;4.474;2023-04-30T08:32:48;19.90;99.90
13898;DHT22;7019;50.766;4.474;2023-04-30T08:35:16;19.60;99.90
13898;DHT22;7019;50.766;4.474;2023-04-30T08:37:44;19.50;99.90
13898;DHT22;7019;50.766;4.474;2023-04-30T08:40:11;19.50;99.90
13898;DHT22;7019;50.766;4.474;2023-04-30T08:42:44;19.40;99.90
13898;DHT22;7019;50.766;4.474;2023-04-30T08:45:12;19.70;99.90
13898;DHT22;7019;50.766;4.474;2023-04-30T08:47:39;19.60;99.90
13898;DHT22;7019;50.766;4.474;2023-04-30T08:50:07;19.60;99.90
13898;DHT22;7019;50.766;4.474;2023-04-30T08:52:36;19.60;99.90
13898;DHT22;7019;50.766;4.474;2023-04-30T08:55:07;19.40;99.90
13898;DHT22;7019;50.766;4.474;2023-04-30T08:57:35;19.40;99.90
13898;DHT22;7019;50.766;4.474;2023-04-30T09:00:03;19.50;99.90
13898;DHT22;7019;50.766;4.474;2023-04-30T09:02:31;19.20;99.90
13898;DHT22;7019;50.766;4.474;2023-04-30T09:04:59;19.20;99.90
13898;DHT22;7019;50.766;4.474;2023-04-30T09:07:26;19.40;99.90
13898;DHT22;7019;50.766;4.474;2023-04-30T09:09:55;19.60;99.90
13898;DHT22;7019;50.766;4.474;2023-04-30T09:12:25;19.90;99.90
13898;DHT22;7019;50.766;4.474;2023-04-30T09:14:59;19.60;99.90
13898;DHT22;7019;50.766;4.474;2023-04-30T09:17:27;19.80;99.90
13898;DHT22;7019;50.766;4.474;2023-04-30T09:19:55;20.10;99.90
13898;DHT22;7019;50.766;4.474;2023-04-30T09:22:32;19.80;99.90
13898;DHT22;7019;50.766;4.474;2023-04-30T09:25:00;19.20;99.90
13898;DHT22;7019;50.766;4.474;2023-04-30T09:27:27;19.30;99.90
13898;DHT22;7019;50.766;4.474;2023-04-30T09:29:54;19.60;99.90
13898;DHT22;7019;50.766;4.474;2023-04-30T09:32:21;19.70;99.90
13898;DHT22;7019;50.766;4.474;2023-04-30T09:34:49;19.60;99.60
13898;DHT22;7019;50.766;4.474;2023-04-30T09:37:16;19.10;99.90
13898;DHT22;7019;50.766;4.474;2023-04-30T09:39:47;19.60;99.90
13898;DHT22;7019;50.766;4.474;2023-04-30T09:42:17;19.90;99.90
13898;DHT22;7019;50.766;4.474;2023-04-30T09:44:45;19.90;99.90
13898;DHT22;7019;50.766;4.474;2023-04-30T09:47:15;19.70;99.90
13898;DHT22;7019;50.766;4.474;2023-04-30T09:49:43;19.70;99.90
13898;DHT22;7019;50.766;4.474;2023-04-30T09:52:14;19.70;99.80
13898;DHT22;7019;50.766;4.474;2023-04-30T09:54:43;19.80;99.80
13898;DHT22;7019;50.766;4.474;2023-04-30T09:57:12;19.90;99.90
13898;DHT22;7019;50.766;4.474;2023-04-30T09:59:43;19.60;99.70
13898;DHT22;7019;50.766;4.474;2023-04-30T10:02:12;19.60;99.70
13898;DHT22;7019;50.766;4.474;2023-04-30T10:04:42;19.30;99.50
13898;DHT22;7019;50.766;4.474;2023-04-30T10:07:11;19.40;98.60
13898;DHT22;7019;50.766;4.474;2023-04-30T10:09:40;19.40;99.70
13898;DHT22;7019;50.766;4.474;2023-04-30T10:12:14;19.40;99.30
13898;DHT22;7019;50.766;4.474;2023-04-30T10:14:50;19.50;99.00
13898;DHT22;7019;50.766;4.474;2023-04-30T10:17:19;19.50;99.10
13898;DHT22;7019;50.766;4.474;2023-04-30T10:19:49;19.50;99.20
13898;DHT22;7019;50.766;4.474;2023-04-30T10:22:18;19.40;99.90
13898;DHT22;7019;50.766;4.474;2023-04-30T10:24:46;19.70;98.00
13898;DHT22;7019;50.766;4.474;2023-04-30T10:27:14;19.80;98.50
13898;DHT22;7019;50.766;4.474;2023-04-30T10:29:42;19.80;97.90
13898;DHT22;7019;50.766;4.474;2023-04-30T10:32:11;19.80;97.20
13898;DHT22;7019;50.766;4.474;2023-04-30T10:34:45;19.60;97.30
13898;DHT22;7019;50.766;4.474;2023-04-30T10:37:20;19.50;97.10
13898;DHT22;7019;50.766;4.474;2023-04-30T10:39:50;19.50;98.30
13898;DHT22;7019;50.766;4.474;2023-04-30T10:42:17;19.40;97.60
13898;DHT22;7019;50.766;4.474;2023-04-30T10:44:44;19.00;98.20
13898;DHT22;7019;50.766;4.474;2023-04-30T10:47:15;18.90;98.30
13898;DHT22;7019;50.766;4.474;2023-04-30T10:49:44;18.90;99.20
13898;DHT22;7019;50.766;4.474;2023-04-30T10:52:13;19.20;97.50
13898;DHT22;7019;50.766;4.474;2023-04-30T10:54:48;19.30;98.20
13898;DHT22;7019;50.766;4.474;2023-04-30T10:57:16;19.30;98.30
13898;DHT22;7019;50.766;4.474;2023-04-30T10:59:51;19.10;98.70
13898;DHT22;7019;50.766;4.474;2023-04-30T11:02:19;18.90;97.60
13898;DHT22;7019;50.766;4.474;2023-04-30T11:05:17;18.70;98.80
13898;DHT22;7019;50.766;4.474;2023-04-30T11:07:48;19.30;98.80
13898;DHT22;7019;50.766;4.474;2023-04-30T11:10:16;19.60;98.60
13898;DHT22;7019;50.766;4.474;2023-04-30T11:12:50;19.90;99.30
13898;DHT22;7019;50.766;4.474;2023-04-30T11:15:19;19.40;97.60
13898;DHT22;7019;50.766;4.474;2023-04-30T11:17:48;19.30;98.10
13898;DHT22;7019;50.766;4.474;2023-04-30T11:20:19;19.60;98.50
13898;DHT22;7019;50.766;4.474;2023-04-30T11:22:46;19.70;99.60
13898;DHT22;7019;50.766;4.474;2023-04-30T11:25:18;19.50;97.80
13898;DHT22;7019;50.766;4.474;2023-04-30T11:27:45;19.40;98.30
13898;DHT22;7019;50.766;4.474;2023-04-30T11:30:13;19.40;98.20
13898;DHT22;7019;50.766;4.474;2023-04-30T11:32:42;19.20;98.30
13898;DHT22;7019;50.766;4.474;2023-04-30T11:35:12;18.70;98.20
13898;DHT22;7019;50.766;4.474;2023-04-30T11:37:41;18.60;98.10
13898;DHT22;7019;50.766;4.474;2023-04-30T11:40:10;18.40;97.50
13898;DHT22;7019;50.766;4.474;2023-04-30T11:42:39;18.50;98.80
13898;DHT22;7019;50.766;4.474;2023-04-30T11:45:08;18.70;98.90
13898;DHT22;7019;50.766;4.474;2023-04-30T11:47:40;19.20;99.00
13898;DHT22;7019;50.766;4.474;2023-04-30T11:50:08;19.60;97.10
13898;DHT22;7019;50.766;4.474;2023-04-30T11:52:38;19.90;97.40
13898;DHT22;7019;50.766;4.474;2023-04-30T11:55:07;19.60;97.20
13898;DHT22;7019;50.766;4.474;2023-04-30T11:57:38;20.00;97.40
13898;DHT22;7019;50.766;4.474;2023-04-30T12:00:11;19.90;97.20
13898;DHT22;7019;50.766;4.474;2023-04-30T12:02:39;20.10;95.60
13898;DHT22;7019;50.766;4.474;2023-04-30T12:05:12;20.00;96.30
13898;DHT22;7019;50.766;4.474;2023-04-30T12:07:49;20.10;96.10
13898;DHT22;7019;50.766;4.474;2023-04-30T12:10:18;20.20;95.90
13898;DHT22;7019;50.766;4.474;2023-04-30T12:12:46;19.90;96.10
13898;DHT22;7019;50.766;4.474;2023-04-30T12:15:15;19.80;96.60
13898;DHT22;7019;50.766;4.474;2023-04-30T12:17:43;19.70;96.90
13898;DHT22;7019;50.766;4.474;2023-04-30T12:20:12;19.60;96.40
13898;DHT22;7019;50.766;4.474;2023-04-30T12:22:39;19.60;96.00
13898;DHT22;7019;50.766;4.474;2023-04-30T12:25:12;19.80;96.60
13898;DHT22;7019;50.766;4.474;2023-04-30T12:27:40;19.70;95.90
13898;DHT22;7019;50.766;4.474;2023-04-30T12:30:08;19.50;96.20
13898;DHT22;7019;50.766;4.474;2023-04-30T12:32:40;19.60;96.10
13898;DHT22;7019;50.766;4.474;2023-04-30T12:35:08;19.50;96.40
13898;DHT22;7019;50.766;4.474;2023-04-30T12:37:42;19.80;94.60
13898;DHT22;7019;50.766;4.474;2023-04-30T12:40:12;19.60;94.60
13898;DHT22;7019;50.766;4.474;2023-04-30T12:42:41;19.40;95.20
13898;DHT22;7019;50.766;4.474;2023-04-30T12:45:10;19.40;95.00
13898;DHT22;7019;50.766;4.474;2023-04-30T12:47:38;19.40;94.50
13898;DHT22;7019;50.766;4.474;2023-04-30T12:50:08;19.30;95.70
13898;DHT22;7019;50.766;4.474;2023-04-30T12:52:36;19.30;96.10
13898;DHT22;7019;50.766;4.474;2023-04-30T12:55:19;19.30;94.90
13898;DHT22;7019;50.766;4.474;2023-04-30T12:58:06;19.30;94.50
13898;DHT22;7019;50.766;4.474;2023-04-30T13:00:46;19.40;94.80
13898;DHT22;7019;50.766;4.474;2023-04-30T13:03:15;19.20;94.50
13898;DHT22;7019;50.766;4.474;2023-04-30T13:05:45;18.90;94.10
13898;DHT22;7019;50.766;4.474;2023-04-30T13:08:14;18.60;95.20
13898;DHT22;7019;50.766;4.474;2023-04-30T13:10:43;18.40;95.50
13898;DHT22;7019;50.766;4.474;2023-04-30T13:13:11;18.30;96.40
13898;DHT22;7019;50.766;4.474;2023-04-30T13:15:38;18.40;97.30
13898;DHT22;7019;50.766;4.474;2023-04-30T13:18:06;18.70;96.80
13898;DHT22;7019;50.766;4.474;2023-04-30T13:20:34;18.90;97.20
13898;DHT22;7019;50.766;4.474;2023-04-30T13:23:01;19.20;95.40
13898;DHT22;7019;50.766;4.474;2023-04-30T13:25:28;19.10;95.80
13898;DHT22;7019;50.766;4.474;2023-04-30T13:27:57;18.90;95.90
13898;DHT22;7019;50.766;4.474;2023-04-30T13:30:24;18.90;96.10
13898;DHT22;7019;50.766;4.474;2023-04-30T13:32:51;19.00;95.80
13898;DHT22;7019;50.766;4.474;2023-04-30T13:35:19;19.20;96.10
13898;DHT22;7019;50.766;4.474;2023-04-30T13:37:46;19.10;95.20
13898;DHT22;7019;50.766;4.474;2023-04-30T13:40:14;19.20;95.40
13898;DHT22;7019;50.766;4.474;2023-04-30T13:42:41;19.40;95.10
13898;DHT22;7019;50.766;4.474;2023-04-30T13:45:11;19.40;95.00
13898;DHT22;7019;50.766;4.474;2023-04-30T13:47:38;19.70;96.70
13898;DHT22;7019;50.766;4.474;2023-04-30T13:50:06;19.70;94.90
13898;DHT22;7019;50.766;4.474;2023-04-30T13:52:34;19.80;94.80
13898;DHT22;7019;50.766;4.474;2023-04-30T13:55:01;19.90;94.70
13898;DHT22;7019;50.766;4.474;2023-04-30T13:57:29;19.70;94.10
13898;DHT22;7019;50.766;4.474;2023-04-30T13:59:57;19.80;94.70
13898;DHT22;7019;50.766;4.474;2023-04-30T14:02:26;20.00;95.30
13898;DHT22;7019;50.766;4.474;2023-04-30T14:04:53;20.00;94.40
13898;DHT22;7019;50.766;4.474;2023-04-30T14:07:20;19.80;95.00
13898;DHT22;7019;50.766;4.474;2023-04-30T14:09:47;19.70;94.70
13898;DHT22;7019;50.766;4.474;2023-04-30T14:12:15;19.60;95.30
13898;DHT22;7019;50.766;4.474;2023-04-30T14:14:42;19.80;94.70
13898;DHT22;7019;50.766;4.474;2023-04-30T14:17:10;19.90;95.00
13898;DHT22;7019;50.766;4.474;2023-04-30T14:19:38;20.10;95.40
13898;DHT22;7019;50.766;4.474;2023-04-30T14:22:06;20.30;94.60
13898;DHT22;7019;50.766;4.474;2023-04-30T14:24:33;20.40;93.20
13898;DHT22;7019;50.766;4.474;2023-04-30T14:27:01;20.30;94.10
13898;DHT22;7019;50.766;4.474;2023-04-30T14:29:28;20.20;94.70
13898;DHT22;7019;50.766;4.474;2023-04-30T14:31:55;19.70;94.70
13898;DHT22;7019;50.766;4.474;2023-04-30T14:34:22;19.30;93.60
13898;DHT22;7019;50.766;4.474;2023-04-30T14:36:51;19.40;95.20
13898;DHT22;7019;50.766;4.474;2023-04-30T14:39:18;19.60;94.00
13898;DHT22;7019;50.766;4.474;2023-04-30T14:41:45;19.70;95.00
13898;DHT22;7019;50.766;4.474;2023-04-30T14:44:12;19.80;94.40
13898;DHT22;7019;50.766;4.474;2023-04-30T14:46:40;19.60;93.90
13898;DHT22;7019;50.766;4.474;2023-04-30T14:49:07;19.90;94.50
13898;DHT22;7019;50.766;4.474;2023-04-30T14:51:34;20.10;93.60
13898;DHT22;7019;50.766;4.474;2023-04-30T14:54:02;20.00;94.10
13898;DHT22;7019;50.766;4.474;2023-04-30T14:56:29;20.00;93.50
13898;DHT22;7019;50.766;4.474;2023-04-30T14:58:56;20.10;93.80
13898;DHT22;7019;50.766;4.474;2023-04-30T15:01:23;20.00;93.00
13898;DHT22;7019;50.766;4.474;2023-04-30T15:03:50;19.80;93.40
13898;DHT22;7019;50.766;4.474;2023-04-30T15:06:18;19.60;94.50
13898;DHT22;7019;50.766;4.474;2023-04-30T15:08:45;19.60;94.10
13898;DHT22;7019;50.766;4.474;2023-04-30T15:11:13;19.60;95.30
13898;DHT22;7019;50.766;4.474;2023-04-30T15:13:40;19.50;94.10
13898;DHT22;7019;50.766;4.474;2023-04-30T15:16:07;19.40;94.00
13898;DHT22;7019;50.766;4.474;2023-04-30T15:18:35;19.30;94.00
13898;DHT22;7019;50.766;4.474;2023-04-30T15:21:01;19.20;94.00
13898;DHT22;7019;50.766;4.474;2023-04-30T15:23:28;19.30;94.70
13898;DHT22;7019;50.766;4.474;2023-04-30T15:25:56;19.40;94.70
13898;DHT22;7019;50.766;4.474;2023-04-30T15:28:25;19.50;94.00
13898;DHT22;7019;50.766;4.474;2023-04-30T15:30:52;19.30;94.20
13898;DHT22;7019;50.766;4.474;2023-04-30T15:33:19;19.30;94.60
13898;DHT22;7019;50.766;4.474;2023-04-30T15:35:49;19.30;93.70
13898;DHT22;7019;50.766;4.474;2023-04-30T15:38:16;19.30;94.40
13898;DHT22;7019;50.766;4.474;2023-04-30T15:40:43;19.20;94.50
13898;DHT22;7019;50.766;4.474;2023-04-30T15:43:10;19.00;94.90
13898;DHT22;7019;50.766;4.474;2023-04-30T15:45:38;18.90;95.50
13898;DHT22;7019;50.766;4.474;2023-04-30T15:48:05;18.80;94.60
13898;DHT22;7019;50.766;4.474;2023-04-30T15:50:32;18.70;94.90
13898;DHT22;7019;50.766;4.474;2023-04-30T15:52:59;18.80;95.00
13898;DHT22;7019;50.766;4.474;2023-04-30T15:55:27;18.90;94.20
13898;DHT22;7019;50.766;4.474;2023-04-30T15:57:54;18.90;95.30
13898;DHT22;7019;50.766;4.474;2023-04-30T16:00:21;19.10;94.50